createdAt,value
2017-12-13T00:00:40.097Z,1007.78
2017-12-13T00:01:40.093Z,1007.73
2017-12-13T00:02:40.090Z,1007.80
2017-12-13T00:03:40.084Z,1007.78
2017-12-13T00:04:40.078Z,1007.86
2017-12-13T00:05:40.075Z,1007.75
2017-12-13T00:06:40.066Z,1007.85
2017-12-13T00:07:40.059Z,1007.84
2017-12-13T00:08:40.057Z,1007.81
2017-12-13T00:09:40.048Z,1007.78
2017-12-13T00:10:40.046Z,1007.83
2017-12-13T00:11:40.042Z,1007.85
2017-12-13T00:12:40.032Z,1007.88
2017-12-13T00:13:40.031Z,1007.90
2017-12-13T00:14:40.030Z,1007.84
2017-12-13T00:15:40.022Z,1007.85
2017-12-13T00:16:40.010Z,1007.87
2017-12-13T00:17:40.004Z,1007.87
2017-12-13T00:18:40.001Z,1007.83
2017-12-13T00:19:39.996Z,1007.84
2017-12-13T00:20:39.992Z,1007.88
2017-12-13T00:21:39.982Z,1007.93
2017-12-13T00:22:39.978Z,1007.87
2017-12-13T00:23:39.971Z,1007.93
2017-12-13T00:24:39.970Z,1007.85
2017-12-13T00:25:39.961Z,1007.87
2017-12-13T00:26:39.955Z,1007.88
2017-12-13T00:27:39.944Z,1007.87
2017-12-13T00:28:39.942Z,1007.92
2017-12-13T00:29:39.935Z,1007.88
2017-12-13T00:30:39.936Z,1007.88
2017-12-13T00:31:39.924Z,1007.91
2017-12-13T00:32:39.922Z,1007.89
2017-12-13T00:33:39.914Z,1007.88
2017-12-13T00:34:39.919Z,1007.87
2017-12-13T00:35:39.906Z,1007.86
2017-12-13T00:36:39.894Z,1007.88
2017-12-13T00:37:39.894Z,1007.86
2017-12-13T00:38:39.886Z,1007.83
2017-12-13T00:39:39.882Z,1007.86
2017-12-13T00:40:39.879Z,1007.84
2017-12-13T00:41:39.870Z,1007.82
2017-12-13T00:42:39.868Z,1007.80
2017-12-13T00:43:39.863Z,1007.78
2017-12-13T00:44:39.855Z,1007.81
2017-12-13T00:45:39.848Z,1007.79
2017-12-13T00:46:39.847Z,1007.76
2017-12-13T00:47:39.835Z,1007.77
2017-12-13T00:48:39.835Z,1007.82
2017-12-13T00:49:39.825Z,1007.83
2017-12-13T00:50:39.831Z,1007.85
2017-12-13T00:51:39.822Z,1007.78
2017-12-13T00:52:39.810Z,1007.79
2017-12-13T00:53:39.809Z,1007.81
2017-12-13T00:54:39.804Z,1007.86
2017-12-13T00:55:39.796Z,1007.84
2017-12-13T00:56:39.791Z,1007.85
2017-12-13T00:57:39.785Z,1007.83
2017-12-13T00:58:39.779Z,1007.85
2017-12-13T00:59:39.775Z,1007.86
2017-12-13T01:00:39.767Z,1007.86
2017-12-13T01:01:39.760Z,1007.84
2017-12-13T01:02:39.757Z,1007.87
2017-12-13T01:03:39.750Z,1007.82
2017-12-13T01:04:39.757Z,1007.85
2017-12-13T01:05:39.746Z,1007.82
2017-12-13T01:06:39.735Z,1007.85
2017-12-13T01:07:39.733Z,1007.89
2017-12-13T01:08:39.732Z,1007.83
2017-12-13T01:09:39.718Z,1007.79
2017-12-13T01:10:39.710Z,1007.83
2017-12-13T01:11:39.709Z,1007.85
2017-12-13T01:12:39.702Z,1007.82
2017-12-13T01:13:39.698Z,1007.82
2017-12-13T01:14:39.698Z,1007.81
2017-12-13T01:15:39.686Z,1007.75
2017-12-13T01:16:39.682Z,1007.83
2017-12-13T01:17:39.678Z,1007.82
2017-12-13T01:18:39.671Z,1007.82
2017-12-13T01:19:39.662Z,1007.87
2017-12-13T01:20:39.663Z,1007.88
2017-12-13T01:21:39.656Z,1007.86
2017-12-13T01:22:39.650Z,1007.90
2017-12-13T01:23:39.647Z,1007.90
2017-12-13T01:24:39.637Z,1007.94
2017-12-13T01:25:39.632Z,1007.95
2017-12-13T01:26:39.628Z,1007.89
2017-12-13T01:27:39.622Z,1007.85
2017-12-13T01:28:39.616Z,1007.92
2017-12-13T01:29:39.617Z,1007.90
2017-12-13T01:30:39.608Z,1007.90
2017-12-13T01:31:39.598Z,1007.93
2017-12-13T01:32:39.604Z,1007.84
2017-12-13T01:33:39.589Z,1007.88
2017-12-13T01:34:39.589Z,1007.92
2017-12-13T01:35:39.580Z,1007.91
2017-12-13T01:36:39.575Z,1007.84
2017-12-13T01:37:39.569Z,1007.88
2017-12-13T01:38:39.564Z,1007.88
2017-12-13T01:39:39.556Z,1007.84
2017-12-13T01:40:39.552Z,1007.84
2017-12-13T01:41:39.545Z,1007.89
2017-12-13T01:42:39.539Z,1007.89
2017-12-13T01:43:39.535Z,1007.92
2017-12-13T01:44:39.528Z,1007.93
2017-12-13T01:45:39.525Z,1007.95
2017-12-13T01:46:39.518Z,1007.99
2017-12-13T01:47:39.519Z,1008.07
2017-12-13T01:48:39.565Z,1008.06
2017-12-13T01:49:39.516Z,1008.03
2017-12-13T01:50:39.493Z,1008.06
2017-12-13T01:51:39.487Z,1008.06
2017-12-13T01:52:39.486Z,1008.04
2017-12-13T01:53:39.481Z,1008.00
2017-12-13T01:54:39.480Z,1007.99
2017-12-13T01:55:39.473Z,1008.01
2017-12-13T01:56:39.466Z,1008.09
2017-12-13T01:57:39.459Z,1008.04
2017-12-13T01:58:39.451Z,1008.08
2017-12-13T01:59:39.446Z,1008.06
2017-12-13T02:00:39.440Z,1008.12
2017-12-13T02:01:39.433Z,1008.08
2017-12-13T02:02:39.428Z,1008.11
2017-12-13T02:03:39.424Z,1008.11
2017-12-13T02:04:39.414Z,1008.15
2017-12-13T02:05:39.412Z,1008.13
2017-12-13T02:06:39.407Z,1008.15
2017-12-13T02:07:39.400Z,1008.16
2017-12-13T02:08:39.394Z,1008.17
2017-12-13T02:09:39.388Z,1008.11
2017-12-13T02:10:39.383Z,1008.06
2017-12-13T02:11:39.378Z,1008.02
2017-12-13T02:12:39.371Z,1008.13
2017-12-13T02:13:39.368Z,1008.15
2017-12-13T02:14:39.361Z,1008.07
2017-12-13T02:15:39.357Z,1008.10
2017-12-13T02:16:39.349Z,1008.11
2017-12-13T02:17:39.345Z,1008.03
2017-12-13T02:18:39.344Z,1008.02
2017-12-13T02:19:39.334Z,1008.05
2017-12-13T02:20:39.332Z,1007.99
2017-12-13T02:21:39.323Z,1008.07
2017-12-13T02:22:39.315Z,1008.03
2017-12-13T02:23:39.307Z,1008.05
2017-12-13T02:24:39.303Z,1007.95
2017-12-13T02:25:39.301Z,1007.97
2017-12-13T02:26:39.296Z,1008.02
2017-12-13T02:27:39.287Z,1007.99
2017-12-13T02:28:39.296Z,1007.93
2017-12-13T02:29:39.270Z,1007.97
2017-12-13T02:30:39.275Z,1007.97
2017-12-13T02:31:39.261Z,1008.04
2017-12-13T02:32:39.265Z,1007.94
2017-12-13T02:33:39.255Z,1007.96
2017-12-13T02:34:39.246Z,1007.98
2017-12-13T02:35:39.239Z,1007.95
2017-12-13T02:36:39.236Z,1007.90
2017-12-13T02:37:39.229Z,1007.92
2017-12-13T02:38:39.223Z,1007.87
2017-12-13T02:39:39.215Z,1007.90
2017-12-13T02:40:39.209Z,1007.92
2017-12-13T02:41:39.205Z,1007.91
2017-12-13T02:42:39.202Z,1007.84
2017-12-13T02:43:39.196Z,1007.84
2017-12-13T02:44:39.191Z,1007.82
2017-12-13T02:45:39.188Z,1007.80
2017-12-13T02:46:39.182Z,1007.83
2017-12-13T02:47:39.176Z,1007.79
2017-12-13T02:48:39.166Z,1007.67
2017-12-13T02:49:39.159Z,1007.74
2017-12-13T02:50:39.157Z,1007.74
2017-12-13T02:51:39.151Z,1007.74
2017-12-13T02:52:39.143Z,1007.73
2017-12-13T02:53:39.136Z,1007.68
2017-12-13T02:54:39.134Z,1007.72
2017-12-13T02:55:39.123Z,1007.69
2017-12-13T02:56:39.119Z,1007.67
2017-12-13T02:57:39.115Z,1007.64
2017-12-13T02:58:39.109Z,1007.56
2017-12-13T02:59:39.106Z,1007.56
2017-12-13T03:00:39.106Z,1007.47
2017-12-13T03:01:39.092Z,1007.51
2017-12-13T03:02:39.087Z,1007.48
2017-12-13T03:03:39.079Z,1007.42
2017-12-13T03:04:39.082Z,1007.31
2017-12-13T03:05:39.069Z,1007.29
2017-12-13T03:06:39.071Z,1007.24
2017-12-13T03:07:39.061Z,1007.20
2017-12-13T03:08:39.054Z,1007.20
2017-12-13T03:09:39.051Z,1007.23
2017-12-13T03:10:39.048Z,1007.20
2017-12-13T03:11:39.034Z,1007.17
2017-12-13T03:12:39.034Z,1007.17
2017-12-13T03:13:39.028Z,1007.17
2017-12-13T03:14:39.022Z,1007.20
2017-12-13T03:15:39.020Z,1007.14
2017-12-13T03:16:39.017Z,1007.15
2017-12-13T03:17:39.004Z,1007.14
2017-12-13T03:18:38.998Z,1007.15
2017-12-13T03:19:38.995Z,1007.15
2017-12-13T03:20:39.023Z,1007.12
2017-12-13T03:21:38.980Z,1007.12
2017-12-13T03:22:39.058Z,1007.07
2017-12-13T03:23:38.975Z,1007.07
2017-12-13T03:24:39.037Z,1007.10
2017-12-13T03:25:38.967Z,1007.10
2017-12-13T03:26:38.989Z,1007.07
2017-12-13T03:27:38.948Z,1007.03
2017-12-13T03:28:38.949Z,1007.04
2017-12-13T03:29:38.941Z,1007.02
2017-12-13T03:30:38.941Z,1007.02
2017-12-13T03:31:38.934Z,1006.99
2017-12-13T03:32:38.924Z,1006.91
2017-12-13T03:33:38.916Z,1006.96
2017-12-13T03:34:38.912Z,1006.92
2017-12-13T03:35:38.909Z,1006.89
2017-12-13T03:36:38.902Z,1006.84
2017-12-13T03:37:38.902Z,1006.85
2017-12-13T03:38:38.894Z,1006.80
2017-12-13T03:39:38.882Z,1006.78
2017-12-13T03:40:38.881Z,1006.78
2017-12-13T03:41:38.873Z,1006.74
2017-12-13T03:42:38.874Z,1006.76
2017-12-13T03:43:38.885Z,1006.79
2017-12-13T03:44:38.856Z,1006.79
2017-12-13T03:45:38.854Z,1006.70
2017-12-13T03:46:38.856Z,1006.66
2017-12-13T03:47:38.843Z,1006.64
2017-12-13T03:48:38.832Z,1006.65
2017-12-13T03:49:38.831Z,1006.59
2017-12-13T03:50:38.830Z,1006.55
2017-12-13T03:51:38.820Z,1006.59
2017-12-13T03:52:38.817Z,1006.57
2017-12-13T03:53:38.805Z,1006.57
2017-12-13T03:54:38.806Z,1006.56
2017-12-13T03:55:38.796Z,1006.59
2017-12-13T03:56:38.799Z,1006.58
2017-12-13T03:57:38.782Z,1006.57
2017-12-13T03:58:38.780Z,1006.58
2017-12-13T03:59:38.811Z,1006.60
2017-12-13T04:00:38.772Z,1006.56
2017-12-13T04:01:38.772Z,1006.58
2017-12-13T04:02:38.764Z,1006.45
2017-12-13T04:03:38.753Z,1006.51
2017-12-13T04:04:38.750Z,1006.51
2017-12-13T04:05:38.763Z,1006.55
2017-12-13T04:06:38.732Z,1006.52
2017-12-13T04:07:38.728Z,1006.54
2017-12-13T04:08:38.721Z,1006.53
2017-12-13T04:09:38.715Z,1006.49
2017-12-13T04:10:38.714Z,1006.55
2017-12-13T04:11:38.708Z,1006.46
2017-12-13T04:12:38.701Z,1006.45
2017-12-13T04:13:38.694Z,1006.52
2017-12-13T04:14:38.692Z,1006.53
2017-12-13T04:15:38.684Z,1006.50
2017-12-13T04:16:38.688Z,1006.51
2017-12-13T04:17:38.673Z,1006.51
2017-12-13T04:18:38.674Z,1006.51
2017-12-13T04:19:38.670Z,1006.50
2017-12-13T04:20:38.660Z,1006.50
2017-12-13T04:21:38.652Z,1006.46
2017-12-13T04:22:38.647Z,1006.43
2017-12-13T04:23:38.641Z,1006.45
2017-12-13T04:24:38.635Z,1006.46
2017-12-13T04:25:38.626Z,1006.41
2017-12-13T04:26:38.623Z,1006.40
2017-12-13T04:27:38.617Z,1006.36
2017-12-13T04:28:38.611Z,1006.40
2017-12-13T04:29:38.606Z,1006.39
2017-12-13T04:30:38.600Z,1006.34
2017-12-13T04:31:38.593Z,1006.36
2017-12-13T04:32:38.591Z,1006.31
2017-12-13T04:33:38.588Z,1006.34
2017-12-13T04:34:38.587Z,1006.31
2017-12-13T04:35:38.570Z,1006.32
2017-12-13T04:36:38.574Z,1006.30
2017-12-13T04:37:38.563Z,1006.31
2017-12-13T04:38:38.559Z,1006.32
2017-12-13T04:39:38.550Z,1006.32
2017-12-13T04:40:38.549Z,1006.28
2017-12-13T04:41:38.538Z,1006.30
2017-12-13T04:42:38.562Z,1006.25
2017-12-13T04:43:38.531Z,1006.29
2017-12-13T04:44:38.525Z,1006.26
2017-12-13T04:45:38.521Z,1006.18
2017-12-13T04:46:38.515Z,1006.25
2017-12-13T04:47:38.506Z,1006.22
2017-12-13T04:48:38.508Z,1006.22
2017-12-13T04:49:38.499Z,1006.22
2017-12-13T04:50:38.489Z,1006.22
2017-12-13T04:51:38.484Z,1006.15
2017-12-13T04:52:38.487Z,1006.19
2017-12-13T04:53:38.473Z,1006.17
2017-12-13T04:54:38.466Z,1006.12
2017-12-13T04:55:38.458Z,1006.15
2017-12-13T04:56:38.453Z,1006.17
2017-12-13T04:57:38.447Z,1006.16
2017-12-13T04:58:38.442Z,1006.16
2017-12-13T04:59:38.436Z,1006.10
2017-12-13T05:00:38.430Z,1006.12
2017-12-13T05:01:38.425Z,1006.09
2017-12-13T05:02:38.420Z,1006.14
2017-12-13T05:03:38.416Z,1006.12
2017-12-13T05:04:38.444Z,1006.14
2017-12-13T05:05:38.404Z,1006.16
2017-12-13T05:06:38.399Z,1006.15
2017-12-13T05:07:38.394Z,1006.14
2017-12-13T05:08:38.383Z,1006.12
2017-12-13T05:09:38.379Z,1006.14
2017-12-13T05:10:38.380Z,1006.08
2017-12-13T05:11:38.365Z,1006.05
2017-12-13T05:12:38.367Z,1006.04
2017-12-13T05:13:38.363Z,1006.09
2017-12-13T05:14:38.353Z,1006.02
2017-12-13T05:15:38.416Z,1006.02
2017-12-13T05:16:38.343Z,1006.01
2017-12-13T05:17:38.331Z,1005.96
2017-12-13T05:18:38.330Z,1005.91
2017-12-13T05:19:38.321Z,1005.96
2017-12-13T05:20:38.323Z,1005.90
2017-12-13T05:21:38.314Z,1005.87
2017-12-13T05:22:38.305Z,1005.86
2017-12-13T05:23:38.298Z,1005.83
2017-12-13T05:24:38.291Z,1005.77
2017-12-13T05:25:38.289Z,1005.80
2017-12-13T05:26:38.277Z,1005.80
2017-12-13T05:27:38.276Z,1005.80
2017-12-13T05:28:38.265Z,1005.84
2017-12-13T05:29:38.267Z,1005.70
2017-12-13T05:30:38.256Z,1005.75
2017-12-13T05:31:38.250Z,1005.69
2017-12-13T05:32:38.243Z,1005.75
2017-12-13T05:33:38.239Z,1005.72
2017-12-13T05:34:38.233Z,1005.76
2017-12-13T05:35:38.224Z,1005.69
2017-12-13T05:36:38.224Z,1005.72
2017-12-13T05:37:38.215Z,1005.68
2017-12-13T05:38:38.213Z,1005.70
2017-12-13T05:39:38.205Z,1005.65
2017-12-13T05:40:38.198Z,1005.66
2017-12-13T05:41:38.195Z,1005.70
2017-12-13T05:42:38.184Z,1005.60
2017-12-13T05:43:38.176Z,1005.61
2017-12-13T05:44:38.174Z,1005.64
2017-12-13T05:45:38.173Z,1005.59
2017-12-13T05:46:38.161Z,1005.57
2017-12-13T05:47:38.155Z,1005.55
2017-12-13T05:48:38.158Z,1005.55
2017-12-13T05:49:38.143Z,1005.58
2017-12-13T05:50:38.151Z,1005.58
2017-12-13T05:51:38.135Z,1005.58
2017-12-13T05:52:38.135Z,1005.57
2017-12-13T05:53:38.122Z,1005.57
2017-12-13T05:54:38.113Z,1005.47
2017-12-13T05:55:38.111Z,1005.50
2017-12-13T05:56:38.104Z,1005.48
2017-12-13T05:57:38.103Z,1005.46
2017-12-13T05:58:38.093Z,1005.43
2017-12-13T05:59:38.087Z,1005.45
2017-12-13T06:00:38.083Z,1005.41
2017-12-13T06:01:38.072Z,1005.38
2017-12-13T06:02:38.082Z,1005.36
2017-12-13T06:03:38.113Z,1005.34
2017-12-13T06:04:38.056Z,1005.33
2017-12-13T06:05:38.052Z,1005.27
2017-12-13T06:06:38.046Z,1005.29
2017-12-13T06:07:38.039Z,1005.27
2017-12-13T06:08:38.033Z,1005.24
2017-12-13T06:09:38.032Z,1005.23
2017-12-13T06:10:38.024Z,1005.23
2017-12-13T06:11:38.025Z,1005.24
2017-12-13T06:12:38.021Z,1005.20
2017-12-13T06:13:38.004Z,1005.25
2017-12-13T06:14:38.002Z,1005.24
2017-12-13T06:15:37.991Z,1005.19
2017-12-13T06:16:37.987Z,1005.17
2017-12-13T06:17:37.991Z,1005.21
2017-12-13T06:18:37.976Z,1005.20
2017-12-13T06:19:37.976Z,1005.20
2017-12-13T06:20:37.972Z,1005.16
2017-12-13T06:21:37.961Z,1005.15
2017-12-13T06:22:37.960Z,1005.18
2017-12-13T06:23:37.948Z,1005.12
2017-12-13T06:24:38.001Z,1005.14
2017-12-13T06:25:37.940Z,1005.17
2017-12-13T06:26:37.929Z,1005.18
2017-12-13T06:27:37.923Z,1005.13
2017-12-13T06:28:37.921Z,1005.11
2017-12-13T06:29:37.914Z,1005.12
2017-12-13T06:30:37.912Z,1005.06
2017-12-13T06:31:37.902Z,1005.03
2017-12-13T06:32:37.900Z,1005.01
2017-12-13T06:33:37.891Z,1005.05
2017-12-13T06:34:37.895Z,1004.96
2017-12-13T06:35:37.881Z,1004.98
2017-12-13T06:36:37.874Z,1004.94
2017-12-13T06:37:37.871Z,1004.94
2017-12-13T06:38:37.875Z,1004.95
2017-12-13T06:39:37.864Z,1004.95
2017-12-13T06:40:37.854Z,1004.93
2017-12-13T06:41:37.846Z,1004.91
2017-12-13T06:42:37.840Z,1004.94
2017-12-13T06:43:37.839Z,1004.87
2017-12-13T06:44:37.834Z,1004.85
2017-12-13T06:45:37.823Z,1004.82
2017-12-13T06:46:37.829Z,1004.79
2017-12-13T06:47:37.811Z,1004.83
2017-12-13T06:48:37.811Z,1004.81
2017-12-13T06:49:37.809Z,1004.81
2017-12-13T06:50:37.799Z,1004.76
2017-12-13T06:51:37.794Z,1004.78
2017-12-13T06:52:37.784Z,1004.79
2017-12-13T06:53:37.782Z,1004.77
2017-12-13T06:54:37.775Z,1004.74
2017-12-13T06:55:37.767Z,1004.76
2017-12-13T06:56:37.765Z,1004.79
2017-12-13T06:57:37.759Z,1004.77
2017-12-13T06:58:37.750Z,1004.78
2017-12-13T06:59:37.743Z,1004.72
2017-12-13T07:00:37.743Z,1004.70
2017-12-13T07:01:37.733Z,1004.73
2017-12-13T07:02:37.730Z,1004.66
2017-12-13T07:03:37.729Z,1004.63
2017-12-13T07:04:37.720Z,1004.66
2017-12-13T07:05:37.709Z,1004.68
2017-12-13T07:06:37.704Z,1004.63
2017-12-13T07:07:37.700Z,1004.57
2017-12-13T07:08:37.695Z,1004.61
2017-12-13T07:09:37.694Z,1004.53
2017-12-13T07:10:37.690Z,1004.66
2017-12-13T07:11:37.678Z,1004.57
2017-12-13T07:12:37.671Z,1004.53
2017-12-13T07:13:37.666Z,1004.50
2017-12-13T07:14:37.662Z,1004.50
2017-12-13T07:15:37.661Z,1004.44
2017-12-13T07:16:37.651Z,1004.47
2017-12-13T07:17:37.654Z,1004.41
2017-12-13T07:18:37.640Z,1004.50
2017-12-13T07:19:37.637Z,1004.47
2017-12-13T07:20:37.625Z,1004.37
2017-12-13T07:21:37.618Z,1004.37
2017-12-13T07:22:37.618Z,1004.40
2017-12-13T07:23:37.614Z,1004.35
2017-12-13T07:24:37.612Z,1004.36
2017-12-13T07:25:37.598Z,1004.35
2017-12-13T07:26:37.593Z,1004.31
2017-12-13T07:27:37.585Z,1004.34
2017-12-13T07:28:37.584Z,1004.24
2017-12-13T07:29:37.582Z,1004.27
2017-12-13T07:30:37.577Z,1004.20
2017-12-13T07:31:37.564Z,1004.18
2017-12-13T07:32:37.559Z,1004.19
2017-12-13T07:33:37.565Z,1004.24
2017-12-13T07:34:37.547Z,1004.21
2017-12-13T07:35:37.546Z,1004.17
2017-12-13T07:36:37.538Z,1004.22
2017-12-13T07:37:37.530Z,1004.14
2017-12-13T07:38:37.534Z,1004.09
2017-12-13T07:39:37.524Z,1004.10
2017-12-13T07:40:37.513Z,1004.10
2017-12-13T07:41:37.511Z,1004.15
2017-12-13T07:42:37.507Z,1004.07
2017-12-13T07:43:37.503Z,1004.10
2017-12-13T07:44:37.491Z,1004.01
2017-12-13T07:45:37.485Z,1004.05
2017-12-13T07:46:37.483Z,1003.99
2017-12-13T07:47:37.473Z,1003.99
2017-12-13T07:48:37.472Z,1003.96
2017-12-13T07:49:37.464Z,1003.96
2017-12-13T07:50:37.455Z,1003.93
2017-12-13T07:51:37.452Z,1003.94
2017-12-13T07:52:37.450Z,1003.85
2017-12-13T07:53:37.444Z,1003.88
2017-12-13T07:54:37.438Z,1003.86
2017-12-13T07:55:37.431Z,1003.76
2017-12-13T07:56:37.424Z,1003.76
2017-12-13T07:57:37.418Z,1003.81
2017-12-13T07:58:37.415Z,1003.71
2017-12-13T07:59:37.408Z,1003.75
2017-12-13T08:00:37.400Z,1003.69
2017-12-13T08:01:37.397Z,1003.72
2017-12-13T08:02:37.385Z,1003.64
2017-12-13T08:03:37.385Z,1003.73
2017-12-13T08:04:37.375Z,1003.65
2017-12-13T08:05:37.371Z,1003.66
2017-12-13T08:06:37.365Z,1003.62
2017-12-13T08:07:37.358Z,1003.59
2017-12-13T08:08:37.359Z,1003.58
2017-12-13T08:09:37.348Z,1003.56
2017-12-13T08:10:37.348Z,1003.56
2017-12-13T08:11:37.340Z,1003.55
2017-12-13T08:12:37.330Z,1003.58
2017-12-13T08:13:37.323Z,1003.54
2017-12-13T08:14:37.337Z,1003.51
2017-12-13T08:15:37.318Z,1003.46
2017-12-13T08:16:37.427Z,1003.43
2017-12-13T08:17:37.307Z,1003.39
2017-12-13T08:18:37.300Z,1003.34
2017-12-13T08:19:37.290Z,1003.39
2017-12-13T08:20:37.289Z,1003.36
2017-12-13T08:21:37.283Z,1003.40
2017-12-13T08:22:37.277Z,1003.31
2017-12-13T08:23:37.268Z,1003.33
2017-12-13T08:24:37.269Z,1003.33
2017-12-13T08:25:37.257Z,1003.30
2017-12-13T08:26:37.254Z,1003.28
2017-12-13T08:27:37.244Z,1003.23
2017-12-13T08:28:37.257Z,1003.20
2017-12-13T08:29:37.242Z,1003.20
2017-12-13T08:30:37.239Z,1003.22
2017-12-13T08:31:37.227Z,1003.22
2017-12-13T08:32:37.223Z,1003.24
2017-12-13T08:33:37.216Z,1003.21
2017-12-13T08:34:37.206Z,1003.14
2017-12-13T08:35:37.205Z,1003.13
2017-12-13T08:36:37.201Z,1003.12
2017-12-13T08:37:37.190Z,1003.16
2017-12-13T08:38:37.191Z,1003.06
2017-12-13T08:39:37.187Z,1003.02
2017-12-13T08:40:37.171Z,1002.98
2017-12-13T08:41:37.175Z,1002.97
2017-12-13T08:42:37.166Z,1002.94
2017-12-13T08:43:37.155Z,1002.88
2017-12-13T08:44:37.153Z,1002.90
2017-12-13T08:45:37.147Z,1002.86
2017-12-13T08:46:37.152Z,1002.82
2017-12-13T08:47:37.137Z,1002.80
2017-12-13T08:48:37.131Z,1002.75
2017-12-13T08:49:37.125Z,1002.84
2017-12-13T08:50:37.119Z,1002.74
2017-12-13T08:51:37.113Z,1002.77
2017-12-13T08:52:37.114Z,1002.77
2017-12-13T08:53:37.106Z,1002.73
2017-12-13T08:54:37.161Z,1002.76
2017-12-13T08:55:37.095Z,1002.75
2017-12-13T08:56:37.092Z,1002.72
2017-12-13T08:57:37.083Z,1002.73
2017-12-13T08:58:37.074Z,1002.69
2017-12-13T08:59:37.073Z,1002.69
2017-12-13T09:00:37.065Z,1002.67
2017-12-13T09:01:37.059Z,1002.72
2017-12-13T09:02:37.052Z,1002.72
2017-12-13T09:03:37.056Z,1002.72
2017-12-13T09:04:37.045Z,1002.71
2017-12-13T09:05:37.045Z,1002.69
2017-12-13T09:06:37.035Z,1002.67
2017-12-13T09:07:37.087Z,1002.64
2017-12-13T09:08:37.028Z,1002.66
2017-12-13T09:09:37.023Z,1002.63
2017-12-13T09:10:37.015Z,1002.65
2017-12-13T09:11:37.013Z,1002.62
2017-12-13T09:12:37.007Z,1002.60
2017-12-13T09:13:37.021Z,1002.57
2017-12-13T09:14:37.000Z,1002.56
2017-12-13T09:15:36.994Z,1002.57
2017-12-13T09:16:36.981Z,1002.60
2017-12-13T09:17:36.975Z,1002.55
2017-12-13T09:18:36.976Z,1002.54
2017-12-13T09:19:36.965Z,1002.54
2017-12-13T09:20:36.966Z,1002.49
2017-12-13T09:21:36.961Z,1002.51
2017-12-13T09:22:36.990Z,1002.54
2017-12-13T09:23:36.947Z,1002.50
2017-12-13T09:24:36.949Z,1002.48
2017-12-13T09:25:36.933Z,1002.40
2017-12-13T09:26:36.934Z,1002.41
2017-12-13T09:27:36.926Z,1002.37
2017-12-13T09:28:36.925Z,1002.40
2017-12-13T09:29:36.916Z,1002.36
2017-12-13T09:30:36.916Z,1002.37
2017-12-13T09:31:36.909Z,1002.37
2017-12-13T09:32:36.904Z,1002.33
2017-12-13T09:33:36.896Z,1002.27
2017-12-13T09:34:36.903Z,1002.28
2017-12-13T09:35:36.885Z,1002.25
2017-12-13T09:36:36.884Z,1002.26
2017-12-13T09:37:36.884Z,1002.24
2017-12-13T09:38:36.874Z,1002.14
2017-12-13T09:39:36.873Z,1002.12
2017-12-13T09:40:36.880Z,1002.07
2017-12-13T09:41:36.865Z,1002.08
2017-12-13T09:42:36.863Z,1002.04
2017-12-13T09:43:36.854Z,1002.03
2017-12-13T09:44:36.847Z,1001.98
2017-12-13T09:45:36.843Z,1002.00
2017-12-13T09:46:36.845Z,1001.96
2017-12-13T09:47:36.831Z,1001.93
2017-12-13T09:48:36.832Z,1001.90
2017-12-13T09:49:36.818Z,1001.87
2017-12-13T09:50:36.826Z,1001.84
2017-12-13T09:51:36.810Z,1001.84
2017-12-13T09:52:36.806Z,1001.90
2017-12-13T09:53:36.809Z,1001.89
2017-12-13T09:54:36.806Z,1001.83
2017-12-13T09:55:36.794Z,1001.82
2017-12-13T09:56:36.787Z,1001.76
2017-12-13T09:57:36.787Z,1001.71
2017-12-13T09:58:36.777Z,1001.71
2017-12-13T09:59:36.776Z,1001.68
2017-12-13T10:00:36.771Z,1001.65
2017-12-13T10:01:36.769Z,1001.60
2017-12-13T10:02:36.758Z,1001.59
2017-12-13T10:03:36.761Z,1001.60
2017-12-13T10:04:36.754Z,1001.56
2017-12-13T10:05:36.746Z,1001.56
2017-12-13T10:06:36.747Z,1001.51
2017-12-13T10:07:36.735Z,1001.44
2017-12-13T10:08:36.735Z,1001.48
2017-12-13T10:09:36.727Z,1001.40
2017-12-13T10:10:36.726Z,1001.36
2017-12-13T10:11:36.714Z,1001.31
2017-12-13T10:12:36.713Z,1001.28
2017-12-13T10:13:36.713Z,1001.25
2017-12-13T10:14:36.709Z,1001.24
2017-12-13T10:15:36.700Z,1001.23
2017-12-13T10:16:36.712Z,1001.20
2017-12-13T10:17:36.695Z,1001.26
2017-12-13T10:18:36.685Z,1001.21
2017-12-13T10:19:36.737Z,1001.18
2017-12-13T10:20:36.691Z,1001.15
2017-12-13T10:21:36.677Z,1001.15
2017-12-13T10:22:36.671Z,1001.14
2017-12-13T10:23:36.665Z,1001.09
2017-12-13T10:24:36.665Z,1001.05
2017-12-13T10:25:36.655Z,1001.05
2017-12-13T10:26:36.649Z,1001.00
2017-12-13T10:27:36.651Z,1000.97
2017-12-13T10:28:36.641Z,1000.96
2017-12-13T10:29:36.640Z,1000.90
2017-12-13T10:30:36.634Z,1000.89
2017-12-13T10:31:36.625Z,1000.91
2017-12-13T10:32:36.631Z,1000.90
2017-12-13T10:33:36.622Z,1000.85
2017-12-13T10:34:36.616Z,1000.82
2017-12-13T10:35:36.611Z,1000.80
2017-12-13T10:36:36.605Z,1000.79
2017-12-13T10:37:36.600Z,1000.80
2017-12-13T10:38:36.598Z,1000.77
2017-12-13T10:39:36.594Z,1000.78
2017-12-13T10:40:36.590Z,1000.70
2017-12-13T10:41:36.584Z,1000.72
2017-12-13T10:42:36.588Z,1000.65
2017-12-13T10:43:36.571Z,1000.67
2017-12-13T10:44:36.575Z,1000.64
2017-12-13T10:45:36.568Z,1000.62
2017-12-13T10:46:36.573Z,1000.57
2017-12-13T10:47:36.556Z,1000.55
2017-12-13T10:48:36.550Z,1000.51
2017-12-13T10:49:36.602Z,1000.47
2017-12-13T10:50:36.542Z,1000.48
2017-12-13T10:51:36.544Z,1000.41
2017-12-13T10:52:36.535Z,1000.39
2017-12-13T10:53:36.528Z,1000.34
2017-12-13T10:54:36.524Z,1000.26
2017-12-13T10:55:36.519Z,1000.29
2017-12-13T10:56:36.569Z,1000.31
2017-12-13T10:57:36.514Z,1000.30
2017-12-13T10:58:36.516Z,1000.27
2017-12-13T10:59:36.511Z,1000.22
2017-12-13T11:00:36.503Z,1000.21
2017-12-13T11:01:36.495Z,1000.21
2017-12-13T11:02:36.491Z,1000.20
2017-12-13T11:03:36.495Z,1000.20
2017-12-13T11:04:36.483Z,1000.12
2017-12-13T11:05:36.475Z,1000.11
2017-12-13T11:06:36.473Z,1000.03
2017-12-13T11:07:36.470Z,1000.05
2017-12-13T11:08:36.462Z,999.99
2017-12-13T11:09:36.460Z,999.98
2017-12-13T11:10:36.452Z,999.91
2017-12-13T11:11:36.457Z,999.88
2017-12-13T11:12:36.445Z,999.84
2017-12-13T11:13:36.443Z,999.76
2017-12-13T11:14:36.435Z,999.71
2017-12-13T11:15:36.435Z,999.73
2017-12-13T11:16:36.450Z,999.68
2017-12-13T11:17:36.425Z,999.64
2017-12-13T11:18:36.421Z,999.66
2017-12-13T11:19:36.421Z,999.63
2017-12-13T11:20:36.415Z,999.51
2017-12-13T11:21:36.406Z,999.45
2017-12-13T11:22:36.404Z,999.41
2017-12-13T11:23:36.400Z,999.34
2017-12-13T11:24:36.397Z,999.37
2017-12-13T11:25:36.396Z,999.37
2017-12-13T11:26:36.402Z,999.33
2017-12-13T11:27:36.384Z,999.34
2017-12-13T11:28:36.388Z,999.31
2017-12-13T11:29:36.377Z,999.33
2017-12-13T11:30:36.369Z,999.31
2017-12-13T11:31:36.366Z,999.25
2017-12-13T11:32:36.364Z,999.18
2017-12-13T11:33:36.354Z,999.20
2017-12-13T11:34:36.352Z,999.14
2017-12-13T11:35:36.352Z,999.07
2017-12-13T11:36:36.346Z,999.04
2017-12-13T11:37:36.336Z,998.96
2017-12-13T11:38:36.334Z,998.93
2017-12-13T11:39:36.331Z,998.88
2017-12-13T11:40:36.329Z,998.79
2017-12-13T11:41:36.323Z,998.76
2017-12-13T11:42:36.321Z,998.77
2017-12-13T11:43:36.311Z,998.78
2017-12-13T11:44:36.314Z,998.67
2017-12-13T11:45:36.306Z,998.63
2017-12-13T11:46:36.307Z,998.61
2017-12-13T11:47:36.295Z,998.54
2017-12-13T11:48:36.291Z,998.49
2017-12-13T11:49:36.294Z,998.45
2017-12-13T11:50:36.283Z,998.40
2017-12-13T11:51:36.281Z,998.31
2017-12-13T11:52:36.278Z,998.25
2017-12-13T11:53:36.281Z,998.24
2017-12-13T11:54:36.270Z,998.17
2017-12-13T11:55:36.264Z,998.12
2017-12-13T11:56:36.262Z,998.08
2017-12-13T11:57:36.254Z,998.07
2017-12-13T11:58:36.255Z,998.03
2017-12-13T11:59:36.245Z,998.05
2017-12-13T12:00:36.249Z,997.99
2017-12-13T12:01:36.240Z,997.99
2017-12-13T12:02:36.246Z,997.93
2017-12-13T12:03:36.231Z,997.89
2017-12-13T12:04:36.230Z,997.87
2017-12-13T12:05:36.225Z,997.89
2017-12-13T12:06:36.216Z,997.88
2017-12-13T12:07:36.213Z,997.78